createdAt,value
2022-12-28T00:00:09.000Z,42.2
2022-12-28T00:01:25.000Z,42.1
2022-12-28T00:02:41.000Z,38.5
2022-12-28T00:03:58.000Z,44.8
2022-12-28T00:05:14.000Z,41.1
2022-12-28T00:06:30.000Z,41.9
2022-12-28T00:07:46.757Z,42.8
2022-12-28T00:09:02.000Z,47.2
2022-12-28T00:10:18.000Z,43.5
2022-12-28T00:11:34.000Z,41.4
2022-12-28T00:12:51.000Z,37.2
2022-12-28T00:14:06.000Z,36.5
2022-12-28T00:15:22.000Z,36.1
2022-12-28T00:16:38.000Z,44
2022-12-28T00:17:54.000Z,39.4
2022-12-28T00:19:10.000Z,42.1
2022-12-28T00:20:27.000Z,45
2022-12-28T00:21:43.000Z,38.2
2022-12-28T00:22:59.000Z,44.3
2022-12-28T00:24:15.000Z,41.8
2022-12-28T00:25:31.000Z,38.1
2022-12-28T00:26:47.000Z,40
2022-12-28T00:28:03.000Z,42.8
2022-12-28T00:29:20.000Z,40.6
2022-12-28T00:30:35.440Z,40.4
2022-12-28T00:31:51.000Z,38.1
2022-12-28T00:33:07.000Z,38.7
2022-12-28T00:34:23.000Z,36.5
2022-12-28T00:35:39.000Z,48.8
2022-12-28T00:36:55.000Z,37.6
2022-12-28T00:38:11.000Z,38.2
2022-12-28T00:39:27.000Z,42.1
2022-12-28T00:40:43.000Z,45
2022-12-28T00:41:59.000Z,34.4
2022-12-28T00:43:15.000Z,42.9
2022-12-28T00:44:31.000Z,41.9
2022-12-28T00:45:47.000Z,37
2022-12-28T00:47:04.000Z,41.8
2022-12-28T00:48:20.000Z,45
2022-12-28T00:49:36.000Z,39
2022-12-28T00:50:52.000Z,45.7
2022-12-28T00:52:08.969Z,35.5
2022-12-28T00:53:25.098Z,41.9
2022-12-28T00:54:40.000Z,43.4
2022-12-28T00:55:56.000Z,44.1
2022-12-28T00:57:12.000Z,42.8
2022-12-28T00:58:28.000Z,44.1
2022-12-28T00:59:44.000Z,39.4
2022-12-28T01:01:01.174Z,35.5
2022-12-28T01:02:16.000Z,50.2
2022-12-28T01:03:33.000Z,46.6
2022-12-28T01:04:49.000Z,33.4
2022-12-28T01:06:05.000Z,42.5
2022-12-28T01:07:21.000Z,38.7
2022-12-28T01:08:37.000Z,35.2
2022-12-28T01:09:53.000Z,40.5
2022-12-28T01:11:08.000Z,45.9
2022-12-28T01:12:25.000Z,46
2022-12-28T01:13:41.000Z,40.1
2022-12-28T01:14:57.000Z,40.5
2022-12-28T01:16:13.000Z,36.5
2022-12-28T01:17:29.000Z,48.8
2022-12-28T01:18:45.000Z,46.5
2022-12-28T01:20:01.000Z,44.5
2022-12-28T01:21:18.000Z,44.7
2022-12-28T01:22:34.000Z,36.8
2022-12-28T01:23:50.000Z,45.3
2022-12-28T01:25:06.000Z,42
2022-12-28T01:26:22.000Z,42.6
2022-12-28T01:27:37.000Z,48.2
2022-12-28T01:28:54.000Z,37.1
2022-12-28T01:30:10.000Z,36.3
2022-12-28T01:31:26.000Z,31.1
2022-12-28T01:32:42.000Z,38.5
2022-12-28T01:33:58.000Z,41.2
2022-12-28T01:35:14.000Z,39.1
2022-12-28T01:36:30.000Z,39.7
2022-12-28T01:37:47.284Z,34.9
2022-12-28T01:39:03.000Z,37.6
2022-12-28T01:40:19.000Z,36.2
2022-12-28T01:41:35.000Z,37.9
2022-12-28T01:42:51.000Z,35.1
2022-12-28T01:44:07.040Z,31
2022-12-28T01:45:22.000Z,32.8
2022-12-28T01:46:39.000Z,34
2022-12-28T01:47:55.486Z,32.4
2022-12-28T01:49:11.000Z,27.7
2022-12-28T01:50:27.000Z,31.2
2022-12-28T01:51:43.000Z,30.8
2022-12-28T01:52:59.000Z,26.9
2022-12-28T01:54:16.213Z,32.9
2022-12-28T01:55:32.000Z,36.2
2022-12-28T01:56:48.503Z,28.2
2022-12-28T01:58:04.000Z,26
2022-12-28T01:59:20.000Z,30.7
2022-12-28T02:00:35.000Z,27.4
2022-12-28T02:01:52.105Z,26.6
2022-12-28T02:03:08.000Z,28
2022-12-28T02:04:24.000Z,26.8
2022-12-28T02:05:40.544Z,28.2
2022-12-28T02:06:56.000Z,21.2
2022-12-28T02:08:12.000Z,21.3
2022-12-28T02:09:28.000Z,27.9
2022-12-28T02:10:44.000Z,26.4
2022-12-28T02:12:01.000Z,24
2022-12-28T02:13:17.000Z,19.2
2022-12-28T02:14:33.572Z,28.4
2022-12-28T02:15:49.000Z,20.2
2022-12-28T02:17:04.000Z,19.4
2022-12-28T02:18:20.000Z,19.3
2022-12-28T02:19:36.000Z,23
2022-12-28T02:20:53.000Z,17.9
2022-12-28T02:22:09.000Z,16.1
2022-12-28T02:23:25.000Z,14.4
2022-12-28T02:24:41.000Z,18.8
2022-12-28T02:25:57.000Z,15.7
2022-12-28T02:27:13.000Z,16
2022-12-28T02:28:29.000Z,16.1
2022-12-28T02:29:46.000Z,14.5
2022-12-28T02:31:02.000Z,11.7
2022-12-28T02:32:18.000Z,14
2022-12-28T02:33:33.000Z,13.1
2022-12-28T02:34:49.000Z,14.4
2022-12-28T02:36:05.000Z,22
2022-12-28T02:37:22.000Z,16.2
2022-12-28T02:38:38.392Z,11.7
2022-12-28T02:39:54.000Z,15.1
2022-12-28T02:41:10.000Z,13.2
2022-12-28T02:42:26.831Z,18.6
2022-12-28T02:43:42.000Z,13.4
2022-12-28T02:44:58.000Z,17.4
2022-12-28T02:46:15.000Z,11.8
2022-12-28T02:47:31.000Z,14.7
2022-12-28T02:48:47.000Z,16.1
2022-12-28T02:50:02.735Z,15.3
2022-12-28T02:51:18.000Z,15.6
2022-12-28T02:52:34.000Z,20.6
2022-12-28T02:53:50.000Z,16.6
2022-12-28T02:55:07.000Z,18.6
2022-12-28T02:56:23.465Z,16.5
2022-12-28T02:57:39.000Z,14.3
2022-12-28T02:58:55.000Z,16.1
2022-12-28T03:00:11.000Z,21.4
2022-12-28T03:01:27.000Z,17.8
2022-12-28T03:02:43.000Z,14.8
2022-12-28T03:04:00.000Z,17.6
2022-12-28T03:05:16.498Z,21
2022-12-28T03:06:31.654Z,18.8
2022-12-28T03:07:47.000Z,16
2022-12-28T03:09:03.000Z,15.6
2022-12-28T03:10:20.095Z,21.4
2022-12-28T03:11:36.000Z,16.5
2022-12-28T03:12:52.000Z,20.9
2022-12-28T03:14:08.000Z,20.3
2022-12-28T03:15:24.000Z,20.7
2022-12-28T03:16:40.000Z,17.7
2022-12-28T03:17:56.000Z,17.2
2022-12-28T03:19:12.000Z,17.1
2022-12-28T03:20:29.000Z,20.6
2022-12-28T03:21:45.000Z,18.1
2022-12-28T03:23:00.000Z,17.9
2022-12-28T03:24:16.000Z,17.8
2022-12-28T03:25:32.892Z,23.2
2022-12-28T03:26:48.000Z,20
2022-12-28T03:28:04.000Z,23.6
2022-12-28T03:29:21.000Z,25.3
2022-12-28T03:30:37.000Z,17.7
2022-12-28T03:31:53.000Z,21.5
2022-12-28T03:33:09.000Z,20.8
2022-12-28T03:34:25.000Z,19.9
2022-12-28T03:35:41.000Z,23.3
2022-12-28T03:36:57.000Z,19.8
2022-12-28T03:38:14.000Z,32.3
2022-12-28T03:39:29.000Z,20.2
2022-12-28T03:40:45.000Z,24.7
2022-12-28T03:42:01.000Z,24.5
2022-12-28T03:43:17.000Z,28.3
2022-12-28T03:44:33.000Z,20.7
2022-12-28T03:45:50.000Z,17.4
2022-12-28T03:47:06.380Z,20.5
2022-12-28T03:48:22.000Z,19
2022-12-28T03:49:38.000Z,22.9
2022-12-28T03:50:54.819Z,23.7
2022-12-28T03:52:10.000Z,19.6
2022-12-28T03:53:26.000Z,20.6
2022-12-28T03:54:43.000Z,19.9
2022-12-28T03:55:58.000Z,21
2022-12-28T03:57:14.000Z,20.5
2022-12-28T03:58:30.000Z,19.5
2022-12-28T03:59:46.862Z,21.2
2022-12-28T04:01:02.000Z,24.5
2022-12-28T04:02:18.000Z,21.9
2022-12-28T04:03:35.000Z,26.1
2022-12-28T04:04:51.000Z,22.1
2022-12-28T04:06:07.000Z,32.2
2022-12-28T04:07:23.000Z,18.8
2022-12-28T04:08:39.000Z,28.2
2022-12-28T04:09:55.000Z,20.7
2022-12-28T04:11:12.188Z,23
2022-12-28T04:12:27.348Z,23.4
2022-12-28T04:13:43.000Z,18.6
2022-12-28T04:14:59.000Z,20.8
2022-12-28T04:16:15.789Z,21
2022-12-28T04:17:31.000Z,25.7
2022-12-28T04:18:47.000Z,22.9
2022-12-28T04:20:04.000Z,21.9
2022-12-28T04:21:20.000Z,25.7
2022-12-28T04:22:36.000Z,20.4
2022-12-28T04:23:52.000Z,22.6
2022-12-28T04:25:08.818Z,26.8
2022-12-28T04:26:24.000Z,24.2
2022-12-28T04:27:40.000Z,22.1
2022-12-28T04:28:56.000Z,26.5
2022-12-28T04:30:12.000Z,25.3
2022-12-28T04:31:28.564Z,26.7
2022-12-28T04:32:44.000Z,19.8
2022-12-28T04:34:00.000Z,27
2022-12-28T04:35:16.000Z,23.5
2022-12-28T04:36:32.000Z,27
2022-12-28T04:37:49.000Z,24.5
2022-12-28T04:39:05.447Z,19.8
2022-12-28T04:40:21.000Z,29.2
2022-12-28T04:41:37.000Z,27
2022-12-28T04:42:53.889Z,25.9
2022-12-28T04:44:09.000Z,29.2
2022-12-28T04:45:24.000Z,22.5
2022-12-28T04:46:41.350Z,22.3
2022-12-28T04:47:57.000Z,21.7
2022-12-28T04:49:13.000Z,22.3
2022-12-28T04:50:29.791Z,25.7
2022-12-28T04:51:45.939Z,21.8
2022-12-28T04:53:00.000Z,20
2022-12-28T04:54:17.253Z,27.2
2022-12-28T04:55:33.000Z,24.4
2022-12-28T04:56:49.000Z,22.6
2022-12-28T04:58:05.694Z,26.8
2022-12-28T04:59:21.000Z,23.6
2022-12-28T05:00:37.000Z,20.6
2022-12-28T05:01:53.000Z,22.6
2022-12-28T05:03:10.000Z,24.7
2022-12-28T05:04:26.000Z,23.3
2022-12-28T05:05:42.000Z,22.8
2022-12-28T05:06:58.719Z,24.9
2022-12-28T05:08:14.000Z,23.4
2022-12-28T05:09:29.000Z,19.6
2022-12-28T05:10:45.000Z,25.7
2022-12-28T05:12:02.000Z,23.9
2022-12-28T05:13:18.000Z,21.3
2022-12-28T05:14:34.000Z,26.2
2022-12-28T05:15:50.000Z,21.4
2022-12-28T05:17:06.000Z,25.3
2022-12-28T05:18:22.000Z,21.6
2022-12-28T05:19:39.204Z,25.2
2022-12-28T05:20:55.000Z,26.6
2022-12-28T05:22:11.000Z,22.8
2022-12-28T05:23:27.000Z,22.9
2022-12-28T05:24:43.000Z,22.9
2022-12-28T05:25:58.000Z,21.7
2022-12-28T05:27:14.000Z,24.6
2022-12-28T05:28:31.000Z,21.3
2022-12-28T05:29:47.000Z,26.3
2022-12-28T05:31:03.000Z,23.9
2022-12-28T05:32:19.689Z,27.6
2022-12-28T05:33:35.000Z,24.8
2022-12-28T05:34:51.978Z,22.9
2022-12-28T05:36:07.000Z,24.6
2022-12-28T05:37:24.000Z,27.7
2022-12-28T05:38:40.000Z,23.9
2022-12-28T05:39:56.000Z,27.6
2022-12-28T05:41:12.000Z,29.2
2022-12-28T05:42:27.000Z,27.9
2022-12-28T05:43:43.000Z,20.6
2022-12-28T05:44:59.000Z,25.2
2022-12-28T05:46:16.000Z,23.2
2022-12-28T05:47:32.000Z,22.3
2022-12-28T05:48:48.000Z,26.4
2022-12-28T05:50:04.000Z,23.9
2022-12-28T05:51:20.908Z,22
2022-12-28T05:52:36.000Z,21.1
2022-12-28T05:53:52.000Z,20.5
2022-12-28T05:55:09.000Z,25.1
2022-12-28T05:56:25.000Z,24.2
2022-12-28T05:57:41.000Z,23.5
2022-12-28T05:58:56.000Z,26.2
2022-12-28T06:00:12.000Z,24.1
2022-12-28T06:01:28.000Z,22.5
2022-12-28T06:02:45.000Z,26.6
2022-12-28T06:04:01.391Z,26.5
2022-12-28T06:05:17.000Z,29.2
2022-12-28T06:06:33.000Z,23.4
2022-12-28T06:07:49.000Z,30.6
2022-12-28T06:09:05.000Z,29.1
2022-12-28T06:10:21.000Z,26.2
2022-12-28T06:11:38.000Z,27.1
2022-12-28T06:12:54.000Z,27.7
2022-12-28T06:14:10.000Z,25.5
2022-12-28T06:15:25.000Z,21.3
2022-12-28T06:16:41.000Z,25.8
2022-12-28T06:17:57.000Z,23
2022-12-28T06:19:13.000Z,21.4
2022-12-28T06:20:30.000Z,17.3
2022-12-28T06:21:46.000Z,24.8
2022-12-28T06:23:02.000Z,21.1
2022-12-28T06:24:18.000Z,26.9
2022-12-28T06:25:34.000Z,21.4
2022-12-28T06:26:50.000Z,18.3
2022-12-28T06:28:06.000Z,19.3
2022-12-28T06:29:23.000Z,22.8
2022-12-28T06:30:39.000Z,21.4
2022-12-28T06:31:54.000Z,18.8
2022-12-28T06:33:10.000Z,26.1
2022-12-28T06:34:26.000Z,20.3
2022-12-28T06:35:42.000Z,21.1
2022-12-28T06:36:59.000Z,22.3
2022-12-28T06:38:15.000Z,17.9
2022-12-28T06:39:31.000Z,17.9
2022-12-28T06:40:47.000Z,15.2
2022-12-28T06:42:03.000Z,17.6
2022-12-28T06:43:19.000Z,19.2
2022-12-28T06:44:35.000Z,18
2022-12-28T06:45:52.000Z,17.8
2022-12-28T06:47:08.000Z,16.8
2022-12-28T06:48:23.000Z,16.8
2022-12-28T06:49:39.000Z,15.8
2022-12-28T06:50:55.000Z,13.9
2022-12-28T06:52:11.000Z,16.2
2022-12-28T06:53:27.000Z,14.4
2022-12-28T06:54:44.000Z,14.8
2022-12-28T06:56:00.000Z,13.1
2022-12-28T06:57:16.000Z,13.8
2022-12-28T06:58:32.000Z,13.5
2022-12-28T06:59:48.000Z,13.5
2022-12-28T07:01:04.000Z,14.3
2022-12-28T07:02:20.000Z,15.6
2022-12-28T07:03:37.000Z,13.7
2022-12-28T07:04:52.000Z,13
2022-12-28T07:06:08.000Z,15.5
2022-12-28T07:07:24.000Z,11.7
2022-12-28T07:08:40.000Z,12.7
2022-12-28T07:09:56.000Z,13.3
2022-12-28T07:11:13.000Z,12.9
2022-12-28T07:12:29.000Z,14.2
2022-12-28T07:13:45.000Z,13.7
2022-12-28T07:15:01.000Z,15.1
2022-12-28T07:16:17.000Z,15
2022-12-28T07:17:33.000Z,14.2
2022-12-28T07:18:49.000Z,11.5
2022-12-28T07:20:06.000Z,11
2022-12-28T07:21:21.000Z,10.1
2022-12-28T07:22:37.000Z,11
2022-12-28T07:23:53.000Z,10.6
2022-12-28T07:25:09.000Z,11.8
2022-12-28T07:26:25.000Z,11.8
2022-12-28T07:27:41.000Z,12.4
2022-12-28T07:28:58.000Z,12.8
2022-12-28T07:30:14.000Z,11.5
2022-12-28T07:31:30.000Z,12.6
2022-12-28T07:32:46.000Z,12
2022-12-28T07:34:02.000Z,10.4
2022-12-28T07:35:18.000Z,11.7
2022-12-28T07:36:34.000Z,10.4
2022-12-28T07:37:50.000Z,12.5
2022-12-28T07:39:06.000Z,10.9
2022-12-28T07:40:22.000Z,13.3
2022-12-28T07:41:38.000Z,11.3
2022-12-28T07:42:54.000Z,12.8
2022-12-28T07:44:10.000Z,10.3
2022-12-28T07:45:27.000Z,10.3
2022-12-28T07:46:43.000Z,10.5
2022-12-28T07:47:59.000Z,13.2
2022-12-28T07:49:15.000Z,11.7
2022-12-28T07:50:31.000Z,10.9
2022-12-28T07:51:47.000Z,11.5
2022-12-28T07:53:03.000Z,13
2022-12-28T07:54:19.000Z,12.8
2022-12-28T07:55:35.000Z,11.9
2022-12-28T07:56:51.000Z,11.5
2022-12-28T07:58:07.000Z,12
2022-12-28T07:59:23.000Z,11.7
2022-12-28T08:00:39.000Z,11.4
2022-12-28T08:01:55.000Z,12.3
2022-12-28T08:03:12.000Z,12.6
2022-12-28T08:04:28.000Z,14.4
2022-12-28T08:05:44.000Z,13.1
2022-12-28T08:07:00.755Z,12.6
2022-12-28T08:08:16.000Z,13.4
2022-12-28T08:09:32.000Z,11.3
2022-12-28T08:10:47.000Z,11.4
2022-12-28T08:12:04.000Z,12.6
2022-12-28T08:13:20.000Z,13
2022-12-28T08:14:36.000Z,11.2
2022-12-28T08:15:52.000Z,12.1
2022-12-28T08:17:08.000Z,10.6
2022-12-28T08:18:24.000Z,12
2022-12-28T08:19:41.000Z,11.3
2022-12-28T08:20:57.000Z,11.8
2022-12-28T08:22:13.000Z,10.3
2022-12-28T08:23:29.000Z,9
2022-12-28T08:24:45.000Z,11.3
2022-12-28T08:26:01.000Z,10.2
2022-12-28T08:27:17.146Z,10
2022-12-28T08:28:33.000Z,10.5
2022-12-28T08:29:49.000Z,10
2022-12-28T08:31:05.000Z,8.2
2022-12-28T08:32:21.000Z,8.6
2022-12-28T08:33:37.000Z,7.2
2022-12-28T08:34:53.000Z,7.9
2022-12-28T08:36:09.000Z,7.3
2022-12-28T08:37:26.000Z,6.8
2022-12-28T08:38:42.000Z,7.6
2022-12-28T08:39:58.000Z,6.6
2022-12-28T08:41:14.000Z,6.1
2022-12-28T08:42:30.000Z,8.1
2022-12-28T08:43:45.000Z,6.3
2022-12-28T08:45:01.000Z,8.4
2022-12-28T08:46:18.000Z,6.5
2022-12-28T08:47:34.000Z,6.2
2022-12-28T08:48:50.000Z,6.2
2022-12-28T08:50:06.000Z,8.9
2022-12-28T08:51:22.000Z,6.7
2022-12-28T08:52:38.000Z,5.2
2022-12-28T08:53:55.232Z,5.8
2022-12-28T08:55:11.000Z,6.6
2022-12-28T08:56:27.000Z,7.3
2022-12-28T08:57:43.000Z,7.8
2022-12-28T08:58:59.000Z,8.2
2022-12-28T09:00:14.000Z,7.1
2022-12-28T09:01:30.000Z,5.8
2022-12-28T09:02:47.000Z,4.8
2022-12-28T09:04:03.000Z,4.6
2022-12-28T09:05:19.000Z,4.9
2022-12-28T09:06:35.000Z,4.3
2022-12-28T09:07:50.000Z,9.1
2022-12-28T09:09:06.000Z,5.7
2022-12-28T09:10:22.000Z,4.8
2022-12-28T09:11:39.000Z,5
2022-12-28T09:12:55.000Z,6.8
2022-12-28T09:14:11.000Z,5.3
2022-12-28T09:15:27.000Z,5.3
2022-12-28T09:16:43.000Z,5.4
2022-12-28T09:17:59.000Z,5.2
2022-12-28T09:19:15.000Z,5
2022-12-28T09:20:32.000Z,5
2022-12-28T09:21:48.000Z,7.1
2022-12-28T09:23:04.000Z,9
2022-12-28T09:24:19.000Z,5.2
2022-12-28T09:25:35.000Z,8.4
2022-12-28T09:26:51.000Z,5.2
2022-12-28T09:28:07.000Z,5.7
2022-12-28T09:29:24.000Z,5.2
2022-12-28T09:30:40.000Z,5.1
2022-12-28T09:31:56.000Z,4.6
2022-12-28T09:33:12.000Z,4.5
2022-12-28T09:34:28.000Z,4.8
2022-12-28T09:35:44.000Z,4.4
2022-12-28T09:37:00.000Z,5.9
2022-12-28T09:38:17.000Z,4.7
2022-12-28T09:39:33.000Z,4.5
2022-12-28T09:40:48.000Z,4.6
2022-12-28T09:42:04.000Z,7.3
2022-12-28T09:43:20.000Z,4.9
2022-12-28T09:44:36.000Z,5.4
2022-12-28T09:45:53.000Z,5.8
2022-12-28T09:47:09.000Z,6.4
2022-12-28T09:48:25.000Z,4.8
2022-12-28T09:49:41.000Z,6.5
2022-12-28T09:50:57.000Z,4.4
2022-12-28T09:52:13.000Z,5
2022-12-28T09:53:29.000Z,5.1
2022-12-28T09:54:46.000Z,4.5
2022-12-28T09:56:02.000Z,4.6
2022-12-28T09:57:17.000Z,4.8
2022-12-28T09:58:33.000Z,4.3
2022-12-28T09:59:49.000Z,4.5
2022-12-28T10:01:05.000Z,4.1
2022-12-28T10:02:21.000Z,4.7
2022-12-28T10:03:38.000Z,4.1
2022-12-28T10:04:54.000Z,5
2022-12-28T10:06:10.000Z,4.8
2022-12-28T10:07:26.000Z,4.8
2022-12-28T10:08:42.897Z,4.9
2022-12-28T10:09:58.000Z,5.6
2022-12-28T10:11:14.000Z,5.9
2022-12-28T10:12:31.000Z,7.4
2022-12-28T10:13:46.000Z,6.1
2022-12-28T10:15:02.000Z,5.6
2022-12-28T10:16:18.000Z,5.8
2022-12-28T10:17:34.000Z,6.5
2022-12-28T10:18:50.000Z,6
2022-12-28T10:20:06.000Z,7
2022-12-28T10:21:23.000Z,5.8
2022-12-28T10:22:39.000Z,6.2
2022-12-28T10:23:55.000Z,6.5
2022-12-28T10:25:11.000Z,8.1
2022-12-28T10:26:27.000Z,7.9
2022-12-28T10:27:43.000Z,10
2022-12-28T10:29:00.000Z,7.6
2022-12-28T10:30:15.000Z,8
2022-12-28T10:31:31.000Z,8.1
2022-12-28T10:32:47.000Z,6.9
2022-12-28T10:34:03.000Z,8.3
2022-12-28T10:35:19.000Z,6.7
2022-12-28T10:36:35.000Z,7.6
2022-12-28T10:37:52.000Z,7.4
2022-12-28T10:39:08.000Z,8.2
2022-12-28T10:40:24.000Z,7.2
2022-12-28T10:41:40.000Z,7.6
2022-12-28T10:42:56.000Z,7.6
2022-12-28T10:44:12.000Z,7.4
2022-12-28T10:45:28.000Z,8.3
2022-12-28T10:46:44.000Z,6
2022-12-28T10:48:00.000Z,5.4
2022-12-28T10:49:16.000Z,6.4
2022-12-28T10:50:32.000Z,5.8
2022-12-28T10:51:48.000Z,5.5
2022-12-28T10:53:04.000Z,4.7
2022-12-28T10:54:20.000Z,8.6
2022-12-28T10:55:37.000Z,4.8
2022-12-28T10:56:53.000Z,4.6
2022-12-28T10:58:09.000Z,4.7
2022-12-28T10:59:25.000Z,9.6
2022-12-28T11:00:41.000Z,4.6
2022-12-28T11:01:57.000Z,4.6
2022-12-28T11:03:12.000Z,5.1
2022-12-28T11:04:29.000Z,6.1
2022-12-28T11:05:45.000Z,4.4
2022-12-28T11:07:01.000Z,6.1
2022-12-28T11:08:17.000Z,4.6
2022-12-28T11:09:33.000Z,5.1
2022-12-28T11:10:49.000Z,4.9
2022-12-28T11:12:06.000Z,4.9
2022-12-28T11:13:22.000Z,7
2022-12-28T11:14:38.000Z,5.2
2022-12-28T11:15:54.000Z,5.6
2022-12-28T11:17:10.000Z,6.1
2022-12-28T11:18:26.000Z,5.4
2022-12-28T11:19:41.000Z,5.6
2022-12-28T11:20:58.000Z,5.7
2022-12-28T11:22:14.000Z,4.8
2022-12-28T11:23:30.000Z,5.1
2022-12-28T11:24:46.000Z,4.8
2022-12-28T11:26:02.000Z,9.2
2022-12-28T11:27:18.000Z,8.1
2022-12-28T11:28:34.000Z,4.7
2022-12-28T11:29:51.000Z,5.3
2022-12-28T11:31:07.000Z,5.3
2022-12-28T11:32:23.000Z,76
2022-12-28T11:33:39.000Z,17.5
2022-12-28T11:34:55.000Z,15
2022-12-28T11:36:10.000Z,63.9
2022-12-28T11:37:26.000Z,24.1
2022-12-28T11:38:43.000Z,6.7
2022-12-28T11:39:59.000Z,5.7
2022-12-28T11:41:15.000Z,4.7
2022-12-28T11:42:31.000Z,5.8
2022-12-28T11:43:47.000Z,7.5
2022-12-28T11:45:03.000Z,5.1
2022-12-28T11:46:19.000Z,7.5
2022-12-28T11:47:36.000Z,9
2022-12-28T11:48:52.000Z,4.4
2022-12-28T11:50:08.000Z,8.4
2022-12-28T11:51:24.000Z,5.9
2022-12-28T11:52:39.000Z,5.1
2022-12-28T11:53:55.000Z,6.6
2022-12-28T11:55:12.000Z,7.3
2022-12-28T11:56:28.382Z,6.1
2022-12-28T11:57:44.000Z,4.3
2022-12-28T11:59:00.000Z,6.5
2022-12-28T12:00:16.000Z,5.4
2022-12-28T12:01:32.000Z,6.2
2022-12-28T12:02:48.000Z,4.1
2022-12-28T12:04:05.000Z,5.9
2022-12-28T12:05:21.399Z,5.8
2022-12-28T12:06:37.000Z,5.1
2022-12-28T12:07:53.000Z,11.1
2022-12-28T12:09:08.000Z,7.7
2022-12-28T12:10:24.000Z,5.9
2022-12-28T12:11:40.000Z,4.6
2022-12-28T12:12:57.000Z,3.8
2022-12-28T12:14:13.000Z,4.9
2022-12-28T12:15:29.000Z,6.5
2022-12-28T12:16:45.000Z,7.9
2022-12-28T12:18:01.000Z,4
2022-12-28T12:19:17.000Z,8.2
2022-12-28T12:20:33.000Z,6.4
2022-12-28T12:21:50.000Z,5.7
2022-12-28T12:23:06.000Z,3.9
2022-12-28T12:24:22.000Z,7.8
2022-12-28T12:25:37.000Z,9.1
2022-12-28T12:26:53.000Z,8.7
2022-12-28T12:28:09.000Z,8
2022-12-28T12:29:25.000Z,9.2
2022-12-28T12:30:42.000Z,8.2
2022-12-28T12:31:58.000Z,9.2
2022-12-28T12:33:14.000Z,10.3
2022-12-28T12:34:30.000Z,7.4
2022-12-28T12:35:46.000Z,15.2
2022-12-28T12:37:02.000Z,9.2
2022-12-28T12:38:18.000Z,13.5
2022-12-28T12:39:35.000Z,9.9
2022-12-28T12:40:51.000Z,21.1
2022-12-28T12:42:06.000Z,14.6
2022-12-28T12:43:22.000Z,17.4
2022-12-28T12:44:38.000Z,10.9
2022-12-28T12:45:54.000Z,15
2022-12-28T12:47:11.000Z,14.9
2022-12-28T12:48:27.000Z,10.5
2022-12-28T12:49:43.000Z,13.9
2022-12-28T12:50:59.000Z,14
2022-12-28T12:52:15.000Z,15.8
2022-12-28T12:53:31.000Z,12.3
2022-12-28T12:54:47.000Z,12.6
2022-12-28T12:56:04.000Z,8.7
2022-12-28T12:57:20.000Z,9.3
2022-12-28T12:58:35.000Z,13.7
2022-12-28T12:59:51.000Z,11.3
2022-12-28T13:01:07.000Z,15.7
2022-12-28T13:02:23.000Z,12.4
2022-12-28T13:03:39.000Z,12.4
2022-12-28T13:04:56.000Z,9.6
2022-12-28T13:06:12.450Z,8
2022-12-28T13:07:28.000Z,10.2
2022-12-28T13:08:44.000Z,8.7
2022-12-28T13:10:00.000Z,11.4
2022-12-28T13:11:16.000Z,11.1
2022-12-28T13:12:32.000Z,8.2
2022-12-28T13:13:49.000Z,11.6
2022-12-28T13:15:04.000Z,12.2
2022-12-28T13:16:20.000Z,7.6
2022-12-28T13:17:36.000Z,8.9
2022-12-28T13:18:52.956Z,12.3
2022-12-28T13:20:08.000Z,9
2022-12-28T13:21:24.000Z,7.5
2022-12-28T13:22:40.000Z,9.6
2022-12-28T13:23:56.000Z,9.1
2022-12-28T13:25:12.000Z,13.3
2022-12-28T13:26:28.000Z,7.5
2022-12-28T13:27:44.000Z,7.1
2022-12-28T13:29:00.000Z,6.9
2022-12-28T13:30:17.000Z,10.4
2022-12-28T13:31:33.000Z,12.6
2022-12-28T13:32:49.544Z,8.2
2022-12-28T13:34:05.000Z,8.9
2022-12-28T13:35:21.000Z,10.5
2022-12-28T13:36:37.000Z,9.1
2022-12-28T13:37:53.000Z,9.9
2022-12-28T13:39:09.000Z,5.5
2022-12-28T13:40:25.000Z,7
2022-12-28T13:41:41.000Z,3.7
2022-12-28T13:42:57.000Z,6.6
2022-12-28T13:44:13.877Z,5.3
2022-12-28T13:45:29.000Z,7.5
2022-12-28T13:46:45.000Z,4.9
2022-12-28T13:48:02.000Z,3.5
2022-12-28T13:49:18.000Z,4.2
2022-12-28T13:50:34.000Z,4.9
2022-12-28T13:51:50.000Z,4.5
2022-12-28T13:53:06.000Z,2.8
2022-12-28T13:54:22.000Z,3.3
2022-12-28T13:55:37.000Z,3.9
2022-12-28T13:56:54.000Z,8.4
2022-12-28T13:58:10.000Z,5.5
2022-12-28T13:59:26.000Z,4.1
2022-12-28T14:00:42.788Z,3.6
2022-12-28T14:01:58.000Z,4.2
2022-12-28T14:03:14.000Z,2.8
2022-12-28T14:04:30.000Z,5.5
2022-12-28T14:05:47.000Z,11.4
2022-12-28T14:07:03.000Z,3.4
2022-12-28T14:08:19.655Z,5.8
2022-12-28T14:09:35.000Z,4.8
2022-12-28T14:10:51.000Z,6.3
2022-12-28T14:12:06.000Z,6.8
2022-12-28T14:13:23.000Z,9.4
2022-12-28T14:14:39.000Z,9.5
2022-12-28T14:15:55.550Z,3.7
2022-12-28T14:17:11.000Z,8.1
2022-12-28T14:18:27.000Z,7.2
2022-12-28T14:19:43.000Z,5.9
2022-12-28T14:21:00.127Z,8.3
2022-12-28T14:22:16.277Z,8.1
2022-12-28T14:23:32.000Z,3.9
2022-12-28T14:24:48.000Z,8.9
2022-12-28T14:26:04.000Z,9.8
2022-12-28T14:27:20.861Z,6.4
2022-12-28T14:28:36.040Z,7.3
2022-12-28T14:29:51.000Z,7.3
2022-12-28T14:31:08.000Z,10.1
2022-12-28T14:32:24.000Z,32.8
2022-12-28T14:33:40.000Z,13.2
2022-12-28T14:34:56.000Z,11.2
2022-12-28T14:36:12.000Z,6.8
2022-12-28T14:37:28.000Z,12.6
2022-12-28T14:38:44.000Z,10.8
2022-12-28T14:40:01.000Z,7.7
2022-12-28T14:41:17.000Z,8
2022-12-28T14:42:33.622Z,5.9
2022-12-28T14:43:49.000Z,8.4
2022-12-28T14:45:04.000Z,10.1
2022-12-28T14:46:20.000Z,7.7
2022-12-28T14:47:36.000Z,7
2022-12-28T14:48:53.000Z,7.4
2022-12-28T14:50:09.000Z,11.2
2022-12-28T14:51:25.000Z,8.1
2022-12-28T14:52:41.000Z,7.8
2022-12-28T14:53:57.000Z,11.5
2022-12-28T14:55:13.000Z,9.8
2022-12-28T14:56:30.248Z,9.6
2022-12-28T14:57:46.000Z,10.2
2022-12-28T14:59:02.000Z,4.9
2022-12-28T15:00:18.000Z,7.1
2022-12-28T15:01:33.000Z,6.6
2022-12-28T15:02:49.000Z,7.3
2022-12-28T15:04:05.000Z,8.8
2022-12-28T15:05:22.000Z,7
2022-12-28T15:06:38.000Z,5.6
2022-12-28T15:07:54.000Z,12.2
2022-12-28T15:09:10.000Z,6.9
2022-12-28T15:10:26.000Z,7.3
2022-12-28T15:11:42.000Z,5.5
2022-12-28T15:12:59.150Z,7.8
2022-12-28T15:14:15.000Z,3.8
2022-12-28T15:15:31.000Z,6.3
2022-12-28T15:16:47.000Z,7.4
2022-12-28T15:18:02.000Z,5.2
2022-12-28T15:19:18.894Z,7
2022-12-28T15:20:34.000Z,5.3
2022-12-28T15:21:50.000Z,5.9
2022-12-28T15:23:07.000Z,7.9
2022-12-28T15:24:23.000Z,7
2022-12-28T15:25:39.000Z,7.6
2022-12-28T15:26:55.000Z,6.8
2022-12-28T15:28:11.000Z,7.4
2022-12-28T15:29:27.000Z,7.7
2022-12-28T15:30:43.000Z,6.3
2022-12-28T15:32:00.000Z,6.8
2022-12-28T15:33:16.000Z,6.9
2022-12-28T15:34:31.000Z,7.5
2022-12-28T15:35:47.802Z,9
2022-12-28T15:37:03.000Z,10.2
2022-12-28T15:38:19.000Z,12.2
2022-12-28T15:39:36.000Z,10.1
2022-12-28T15:40:52.000Z,11.5
2022-12-28T15:42:08.000Z,10.9
2022-12-28T15:43:24.000Z,13.5
2022-12-28T15:44:40.824Z,12.3
2022-12-28T15:45:56.000Z,39
2022-12-28T15:47:12.000Z,49.4
2022-12-28T15:48:29.000Z,18.4
2022-12-28T15:49:45.000Z,39.6
2022-12-28T15:51:00.567Z,19.2
2022-12-28T15:52:16.000Z,10.8
2022-12-28T15:53:32.000Z,11.7
2022-12-28T15:54:48.000Z,10.1
2022-12-28T15:56:04.000Z,11.2
2022-12-28T15:57:21.000Z,11.2
2022-12-28T15:58:37.000Z,11.6
2022-12-28T15:59:53.000Z,8.2
2022-12-28T16:01:09.000Z,9.5
2022-12-28T16:02:25.877Z,7.9
2022-12-28T16:03:41.000Z,8.7
2022-12-28T16:04:57.000Z,9.3
2022-12-28T16:06:14.000Z,10
2022-12-28T16:07:29.000Z,6.8
2022-12-28T16:08:45.000Z,8.6
2022-12-28T16:10:01.000Z,8
2022-12-28T16:11:17.000Z,6.8
2022-12-28T16:12:33.000Z,6.9
2022-12-28T16:13:49.000Z,7.3
2022-12-28T16:15:06.000Z,5.9
2022-12-28T16:16:22.000Z,6
2022-12-28T16:17:38.636Z,5.1
2022-12-28T16:18:54.000Z,6.5
2022-12-28T16:20:10.923Z,5.1
2022-12-28T16:21:26.000Z,7
2022-12-28T16:22:43.000Z,5
2022-12-28T16:23:58.000Z,5.1
2022-12-28T16:25:14.000Z,5.2
2022-12-28T16:26:30.678Z,4.8
2022-12-28T16:27:46.815Z,4.2
2022-12-28T16:29:02.000Z,5.8
2022-12-28T16:30:18.000Z,4.8
2022-12-28T16:31:35.000Z,4
2022-12-28T16:32:51.000Z,3.7
2022-12-28T16:34:07.544Z,3.9
2022-12-28T16:35:23.000Z,3.7
2022-12-28T16:36:39.000Z,3.3
2022-12-28T16:37:55.000Z,3
2022-12-28T16:39:11.000Z,4.2
2022-12-28T16:40:27.000Z,3.3
2022-12-28T16:41:43.000Z,3.2
2022-12-28T16:42:59.000Z,3.1
2022-12-28T16:44:15.000Z,3.4
2022-12-28T16:45:31.000Z,3.4
2022-12-28T16:46:47.000Z,3.5
2022-12-28T16:48:04.165Z,3.3
2022-12-28T16:49:20.000Z,3.3
2022-12-28T16:50:36.450Z,3.2
2022-12-28T16:51:52.000Z,3
2022-12-28T16:53:08.000Z,3.2
2022-12-28T16:54:24.000Z,3.1
2022-12-28T16:55:40.000Z,3
2022-12-28T16:56:55.000Z,3.2
2022-12-28T16:58:12.000Z,4.8
2022-12-28T16:59:28.485Z,2.3
2022-12-28T17:00:44.000Z,2.7
2022-12-28T17:02:00.781Z,2.7
2022-12-28T17:03:16.000Z,2.5
2022-12-28T17:04:32.000Z,3.1
2022-12-28T17:05:48.000Z,2.7
2022-12-28T17:07:05.000Z,2.6
2022-12-28T17:08:21.000Z,2.6
2022-12-28T17:09:37.000Z,3
2022-12-28T17:10:53.800Z,4.8
2022-12-28T17:12:09.000Z,2.6
2022-12-28T17:13:24.000Z,3